Time;durP1;ratioP1;P1;durP2;ratioP2;P2;SDS_P1;SDS_P2;PMS_P1;PMS_P2;Temp;Humidity;BMP_temperature;BMP_pressure;BME280_temperature;BME280_humidity;BME280_pressure;Samples;Min_cycle;Max_cycle;Signal;HPM_P1;HPM_P2
2021/06/12 00:01:00;;;;;;;18.77;14.75;;;22.20;99.90;;;;;;1829747;77;21178;-72
2021/06/12 00:03:28;;;;;;;19.23;14.35;;;22.20;99.90;;;;;;1825998;77;21239;-71
2021/06/12 00:05:55;;;;;;;24.52;15.35;;;22.20;99.90;;;;;;1827308;77;21572;-70
2021/06/12 00:08:23;;;;;;;20.62;15.48;;;22.20;99.90;;;;;;1827248;77;21587;-70
2021/06/12 00:10:50;;;;;;;21.87;15.95;;;22.20;99.90;;;;;;1822284;77;21205;-71
2021/06/12 00:13:18;;;;;;;23.38;16.85;;;22.20;99.90;;;;;;1815064;77;21268;-74
2021/06/12 00:15:45;;;;;;;24.45;17.40;;;22.20;99.90;;;;;;1818706;77;21651;-71
2021/06/12 00:18:14;;;;;;;21.62;15.95;;;22.20;99.90;;;;;;1823132;77;21098;-71
2021/06/12 00:20:41;;;;;;;21.52;16.00;;;22.20;99.90;;;;;;1824803;77;21119;-71
2021/06/12 00:23:09;;;;;;;22.77;16.48;;;22.20;99.90;;;;;;1848597;77;21176;-74
2021/06/12 00:25:40;;;;;;;21.42;15.48;;;22.20;99.90;;;;;;1824268;77;22511;-74
2021/06/12 00:28:08;;;;;;;29.52;17.70;;;22.20;99.90;;;;;;1822524;77;21193;-68
2021/06/12 00:30:36;;;;;;;23.65;17.30;;;22.20;99.90;;;;;;1821339;76;21133;-70
2021/06/12 00:33:04;;;;;;;26.93;18.48;;;22.10;99.90;;;;;;1824951;77;21103;-70
2021/06/12 00:35:32;;;;;;;30.68;17.55;;;22.10;99.90;;;;;;1796446;78;21122;-73
2021/06/12 00:38:00;;;;;;;25.48;18.15;;;22.10;99.90;;;;;;1838145;77;21186;-74
2021/06/12 00:40:27;;;;;;;27.87;19.45;;;22.10;99.90;;;;;;1829666;77;21158;-70
2021/06/12 00:42:56;;;;;;;27.20;19.87;;;22.00;99.90;;;;;;1829667;77;21561;-72
2021/06/12 00:45:25;;;;;;;24.47;19.42;;;22.00;99.90;;;;;;1822397;77;21188;-69
2021/06/12 00:47:55;;;;;;;29.55;19.27;;;22.00;99.90;;;;;;1834867;77;21040;-73
2021/06/12 00:50:25;;;;;;;26.85;20.65;;;22.10;99.90;;;;;;1832166;77;21146;-74
2021/06/12 00:52:53;;;;;;;28.23;20.02;;;22.10;99.90;;;;;;1832888;77;21130;-73
2021/06/12 00:55:21;;;;;;;30.25;20.72;;;22.20;99.90;;;;;;1827211;77;21208;-73
2021/06/12 00:57:49;;;;;;;33.55;20.48;;;22.20;99.90;;;;;;1828256;77;21118;-73
2021/06/12 01:00:19;;;;;;;31.12;21.40;;;22.10;99.90;;;;;;1832342;77;21202;-72
2021/06/12 01:02:47;;;;;;;35.50;22.98;;;22.20;99.90;;;;;;1836473;76;21796;-72
2021/06/12 01:05:16;;;;;;;32.35;21.52;;;22.10;99.90;;;;;;1831522;77;21100;-71
2021/06/12 01:07:44;;;;;;;29.12;21.30;;;22.10;99.90;;;;;;1829111;77;21122;-72
2021/06/12 01:10:15;;;;;;;29.98;22.15;;;22.10;99.90;;;;;;1827617;77;21189;-72
2021/06/12 01:12:58;;;;;;;29.90;21.85;;;22.10;99.90;;;;;;1827548;77;21189;-72
2021/06/12 01:15:29;;;;;;;30.05;22.37;;;22.10;99.90;;;;;;1794817;78;21855;-71
2021/06/12 01:18:03;;;;;;;28.73;21.42;;;22.10;99.90;;;;;;1822973;77;21177;-72
2021/06/12 01:20:45;;;;;;;33.65;22.37;;;22.10;99.90;;;;;;1840066;76;21134;-70
2021/06/12 01:23:16;;;;;;;32.08;22.17;;;22.10;99.90;;;;;;1827235;77;21121;-70
2021/06/12 01:25:55;;;;;;;32.25;22.75;;;21.90;99.90;;;;;;1845143;77;21173;-71
2021/06/12 01:28:53;;;;;;;30.45;22.13;;;22.00;99.90;;;;;;1825912;77;21187;-71
2021/06/12 01:31:22;;;;;;;33.13;22.27;;;22.00;99.90;;;;;;1824599;77;21648;-70
2021/06/12 01:33:52;;;;;;;33.78;22.50;;;22.00;99.90;;;;;;1825479;77;21110;-70
2021/06/12 01:36:21;;;;;;;29.25;21.60;;;21.90;99.90;;;;;;1837112;77;21118;-70
2021/06/12 01:38:52;;;;;;;30.27;22.10;;;22.00;99.90;;;;;;1839351;78;21078;-70
2021/06/12 01:41:22;;;;;;;33.70;23.30;;;22.00;99.90;;;;;;1836717;77;21212;-70
2021/06/12 01:43:51;;;;;;;29.45;22.07;;;22.00;99.90;;;;;;1824569;77;21548;-70
2021/06/12 01:46:20;;;;;;;32.40;22.40;;;22.00;99.90;;;;;;1833630;77;21058;-70
2021/06/12 01:48:49;;;;;;;32.35;21.73;;;22.00;99.90;;;;;;1794262;78;21113;-70
2021/06/12 01:51:18;;;;;;;30.25;22.25;;;22.00;99.90;;;;;;1773970;78;21591;-70
2021/06/12 01:53:47;;;;;;;32.60;22.50;;;22.00;99.90;;;;;;1828842;77;21545;-70
2021/06/12 01:56:14;;;;;;;31.05;22.07;;;22.00;99.90;;;;;;1837549;77;21051;-69
2021/06/12 01:58:46;;;;;;;28.52;21.55;;;22.00;99.90;;;;;;1827487;77;21022;-70
2021/06/12 02:01:16;;;;;;;31.85;23.25;;;22.00;99.90;;;;;;1793808;78;21103;-70
2021/06/12 02:03:46;;;;;;;41.70;24.43;;;22.00;99.90;;;;;;1826569;77;21118;-69
2021/06/12 02:06:17;;;;;;;31.17;22.50;;;21.90;99.90;;;;;;1828523;77;21031;-70
2021/06/12 02:08:46;;;;;;;33.53;22.98;;;21.90;99.90;;;;;;1826386;77;21032;-69
2021/06/12 02:11:16;;;;;;;34.43;24.45;;;21.90;99.90;;;;;;1800779;78;21677;-71
2021/06/12 02:13:44;;;;;;;32.73;22.40;;;21.90;99.90;;;;;;1831232;77;21102;-71
2021/06/12 02:16:13;;;;;;;31.73;22.62;;;21.90;99.90;;;;;;1835078;77;21482;-69
2021/06/12 02:18:44;;;;;;;31.93;22.65;;;21.90;99.90;;;;;;1794836;80;21158;-71
2021/06/12 02:21:13;;;;;;;38.98;23.18;;;21.80;99.90;;;;;;1868434;75;21142;-70
2021/06/12 02:23:42;;;;;;;29.37;21.97;;;21.80;99.90;;;;;;1822351;77;21087;-71
2021/06/12 02:26:11;;;;;;;30.97;22.50;;;21.80;99.90;;;;;;1820798;77;21138;-71
2021/06/12 02:28:39;;;;;;;31.57;22.55;;;21.80;99.90;;;;;;1826202;77;21390;-71
2021/06/12 02:31:19;;;;;;;35.52;24.70;;;21.90;99.90;;;;;;1824453;77;21171;-71
2021/06/12 02:33:47;;;;;;;37.35;26.07;;;21.90;99.90;;;;;;1823224;77;21130;-71
2021/06/12 02:36:15;;;;;;;42.40;29.82;;;21.90;99.90;;;;;;1827846;77;21125;-72
2021/06/12 02:38:43;;;;;;;42.43;31.23;;;21.80;99.90;;;;;;1824153;77;21185;-71
2021/06/12 02:41:11;;;;;;;41.33;31.17;;;21.80;99.90;;;;;;1815765;77;21162;-71
2021/06/12 02:43:38;;;;;;;40.40;30.15;;;21.80;99.90;;;;;;1821283;77;21234;-70
2021/06/12 02:46:12;;;;;;;41.37;30.32;;;21.70;99.90;;;;;;1820810;77;21099;-70
2021/06/12 02:48:40;;;;;;;34.73;28.47;;;21.80;99.90;;;;;;1822391;77;21688;-69
2021/06/12 02:51:10;;;;;;;42.10;29.30;;;21.80;99.90;;;;;;1821237;77;21181;-70
2021/06/12 02:53:40;;;;;;;38.23;28.45;;;21.80;99.90;;;;;;1820879;77;21590;-71
2021/06/12 02:56:08;;;;;;;34.13;28.15;;;21.80;99.90;;;;;;1795777;78;21123;-72
2021/06/12 02:58:37;;;;;;;40.30;29.00;;;21.90;99.90;;;;;;1838469;77;21110;-70
2021/06/12 03:01:04;;;;;;;40.63;29.80;;;21.90;99.90;;;;;;1839871;77;21268;-71
2021/06/12 03:03:34;;;;;;;40.20;29.87;;;21.90;99.90;;;;;;1826770;77;21717;-69
2021/06/12 03:06:04;;;;;;;38.48;29.45;;;21.90;99.90;;;;;;1841898;76;21145;-70
2021/06/12 03:08:37;;;;;;;39.35;29.85;;;21.80;99.90;;;;;;1826011;77;21105;-70
2021/06/12 03:11:07;;;;;;;39.45;28.35;;;21.80;99.90;;;;;;1832773;77;21182;-69
2021/06/12 03:13:36;;;;;;;35.58;27.37;;;21.80;99.90;;;;;;1834273;77;21446;-69
2021/06/12 03:16:04;;;;;;;37.48;28.47;;;21.70;99.90;;;;;;1837138;77;21095;-70
2021/06/12 03:18:32;;;;;;;37.25;28.40;;;21.70;99.90;;;;;;1832920;77;21110;-70
2021/06/12 03:21:02;;;;;;;40.85;28.45;;;21.70;99.90;;;;;;1827893;78;21727;-69
2021/06/12 03:23:31;;;;;;;47.05;29.30;;;21.70;99.90;;;;;;1849282;77;21155;-73
2021/06/12 03:26:00;;;;;;;35.90;28.52;;;21.70;99.90;;;;;;1832297;77;21201;-71
2021/06/12 03:28:29;;;;;;;38.65;27.73;;;21.70;99.90;;;;;;1823526;77;21095;-71
2021/06/12 03:30:56;;;;;;;37.03;26.87;;;21.70;99.90;;;;;;1829143;71;22017;-71
2021/06/12 03:33:24;;;;;;;42.98;28.75;;;21.60;99.90;;;;;;1789313;78;21226;-71
2021/06/12 03:35:53;;;;;;;37.48;26.77;;;21.60;99.90;;;;;;1857418;75;21117;-71
2021/06/12 03:38:22;;;;;;;40.48;28.45;;;21.60;99.90;;;;;;1854985;75;21125;-72
2021/06/12 03:40:50;;;;;;;37.78;26.95;;;21.60;99.90;;;;;;1863448;75;21444;-71
2021/06/12 03:43:18;;;;;;;39.00;28.27;;;21.60;99.90;;;;;;1871119;75;21062;-72
2021/06/12 03:45:47;;;;;;;38.08;28.17;;;21.60;99.90;;;;;;1877242;75;21658;-72
2021/06/12 03:48:15;;;;;;;34.85;27.42;;;21.50;99.90;;;;;;1874337;75;21086;-71
2021/06/12 03:50:43;;;;;;;36.05;27.00;;;21.50;99.90;;;;;;1875930;75;21801;-71
2021/06/12 03:53:10;;;;;;;35.03;26.90;;;21.50;99.90;;;;;;1878383;75;21643;-69
2021/06/12 03:55:38;;;;;;;35.92;26.95;;;21.30;99.90;;;;;;1882835;75;21039;-73
2021/06/12 03:58:06;;;;;;;37.90;27.20;;;21.30;99.90;;;;;;1889499;75;21537;-72
2021/06/12 04:00:34;;;;;;;37.55;27.32;;;21.40;99.90;;;;;;1883196;75;21710;-71
2021/06/12 04:03:01;;;;;;;32.60;26.30;;;21.40;99.90;;;;;;1878488;75;21163;-71
2021/06/12 04:05:29;;;;;;;38.00;27.30;;;21.40;99.90;;;;;;1872116;75;21353;-69
2021/06/12 04:07:57;;;;;;;36.83;27.67;;;21.50;99.90;;;;;;1872953;75;21087;-72
2021/06/12 04:10:24;;;;;;;37.67;27.42;;;21.40;99.90;;;;;;1882893;75;21405;-70
2021/06/12 04:12:52;;;;;;;36.98;27.40;;;21.50;99.90;;;;;;1886832;75;21509;-70
2021/06/12 04:15:19;;;;;;;35.52;27.45;;;21.60;99.90;;;;;;1874919;75;21485;-69
2021/06/12 04:17:49;;;;;;;36.40;27.10;;;21.60;99.90;;;;;;1879667;75;21044;-70
2021/06/12 04:20:16;;;;;;;34.05;26.87;;;21.60;99.90;;;;;;1884488;75;21107;-71
2021/06/12 04:22:44;;;;;;;39.78;28.80;;;21.60;99.90;;;;;;1884350;75;21407;-71
2021/06/12 04:25:11;;;;;;;41.33;27.85;;;21.60;99.90;;;;;;1879169;75;21084;-71
2021/06/12 04:27:39;;;;;;;35.45;27.55;;;21.60;99.90;;;;;;1883318;75;21603;-72
2021/06/12 04:30:07;;;;;;;47.00;29.57;;;21.70;99.90;;;;;;1880948;75;21121;-72
2021/06/12 04:32:35;;;;;;;36.53;28.38;;;21.70;99.90;;;;;;1885417;75;21105;-72
2021/06/12 04:35:03;;;;;;;43.40;28.12;;;21.70;99.90;;;;;;1872323;75;21190;-71
2021/06/12 04:37:32;;;;;;;35.88;28.17;;;21.70;99.90;;;;;;1872959;75;21157;-72
2021/06/12 04:39:59;;;;;;;39.60;28.85;;;21.70;99.90;;;;;;1871947;75;21247;-72
2021/06/12 04:42:27;;;;;;;39.63;27.82;;;21.70;99.90;;;;;;1880603;75;21645;-71
2021/06/12 04:44:54;;;;;;;44.53;29.23;;;21.70;99.90;;;;;;1882531;75;21106;-70
2021/06/12 04:47:22;;;;;;;36.85;27.65;;;21.60;99.90;;;;;;1874350;75;21110;-68
2021/06/12 04:49:49;;;;;;;41.42;29.27;;;21.60;99.90;;;;;;1876184;75;21541;-70
2021/06/12 04:52:17;;;;;;;39.88;29.87;;;21.60;99.90;;;;;;1886177;75;21063;-69
2021/06/12 04:54:44;;;;;;;37.13;28.47;;;21.60;99.90;;;;;;1886025;75;21082;-70
2021/06/12 04:57:12;;;;;;;35.65;28.15;;;21.60;99.90;;;;;;1887724;75;21097;-70
2021/06/12 04:59:39;;;;;;;38.48;28.27;;;21.60;99.90;;;;;;1892755;75;21090;-71
2021/06/12 05:02:07;;;;;;;39.05;28.17;;;21.70;99.90;;;;;;1885213;75;21243;-70
2021/06/12 05:04:34;;;;;;;38.38;28.98;;;21.70;99.90;;;;;;1878250;75;21230;-71
2021/06/12 05:07:02;;;;;;;36.95;28.52;;;21.70;99.90;;;;;;1867290;76;21117;-72
2021/06/12 05:09:29;;;;;;;39.40;29.50;;;21.60;99.90;;;;;;1876149;75;21206;-73
2021/06/12 05:11:58;;;;;;;38.35;28.40;;;21.60;99.90;;;;;;1883037;75;21226;-73
2021/06/12 05:14:26;;;;;;;37.23;27.05;;;21.60;99.90;;;;;;1887277;75;21078;-70
2021/06/12 05:16:53;;;;;;;37.78;27.55;;;21.70;99.90;;;;;;1878944;75;21223;-71
2021/06/12 05:19:21;;;;;;;37.65;27.40;;;21.60;99.90;;;;;;1877629;75;21128;-72
2021/06/12 05:21:48;;;;;;;38.78;27.52;;;21.60;99.90;;;;;;1876917;75;21074;-73
2021/06/12 05:24:16;;;;;;;40.00;27.77;;;21.70;99.90;;;;;;1886998;75;21212;-73
2021/06/12 05:26:43;;;;;;;38.80;27.15;;;21.70;99.90;;;;;;1875733;75;21498;-71
2021/06/12 05:29:11;;;;;;;36.13;26.17;;;21.70;99.90;;;;;;1879724;75;21152;-73
2021/06/12 05:31:39;;;;;;;40.98;25.77;;;21.70;99.90;;;;;;1877775;75;21191;-72
2021/06/12 05:34:06;;;;;;;38.55;25.88;;;21.70;99.90;;;;;;1879746;75;21217;-71
2021/06/12 05:36:34;;;;;;;37.38;25.40;;;21.80;99.90;;;;;;1885202;75;21101;-70
2021/06/12 05:39:01;;;;;;;38.38;26.50;;;21.80;99.90;;;;;;1882561;75;21110;-70
2021/06/12 05:41:30;;;;;;;37.08;26.70;;;21.80;99.90;;;;;;1879390;75;21126;-73
2021/06/12 05:43:58;;;;;;;33.65;24.70;;;21.80;99.90;;;;;;1876238;75;21173;-70
2021/06/12 05:46:25;;;;;;;31.40;25.08;;;21.70;99.90;;;;;;1878609;75;21165;-71
2021/06/12 05:48:53;;;;;;;38.98;25.62;;;21.80;99.90;;;;;;1884271;75;21188;-71
2021/06/12 05:51:20;;;;;;;33.38;25.25;;;21.80;99.90;;;;;;1879462;75;21591;-69
2021/06/12 05:53:48;;;;;;;38.13;26.10;;;21.90;99.90;;;;;;1876017;75;21126;-70
2021/06/12 05:56:15;;;;;;;35.58;25.88;;;21.80;99.90;;;;;;1877078;75;21143;-72
2021/06/12 05:58:43;;;;;;;34.25;24.82;;;21.80;99.90;;;;;;1881694;75;21086;-73
2021/06/12 06:01:12;;;;;;;32.73;24.12;;;21.80;99.90;;;;;;1896557;75;21204;-72
2021/06/12 06:03:40;;;;;;;32.65;23.98;;;21.90;99.90;;;;;;1880362;75;21647;-72
2021/06/12 06:06:07;;;;;;;31.77;23.00;;;21.90;99.90;;;;;;1858729;75;21180;-70
2021/06/12 06:08:36;;;;;;;33.80;23.30;;;21.80;99.90;;;;;;1882550;75;21101;-72
2021/06/12 06:11:04;;;;;;;31.10;22.45;;;21.80;99.90;;;;;;1892127;75;21126;-71
2021/06/12 06:13:44;;;;;;;30.57;22.82;;;21.70;99.90;;;;;;1879002;75;21174;-70
2021/06/12 06:16:13;;;;;;;32.23;23.62;;;21.70;99.90;;;;;;1874863;75;21054;-72
2021/06/12 06:18:41;;;;;;;32.65;22.75;;;21.80;99.90;;;;;;1878867;75;21075;-72
2021/06/12 06:21:10;;;;;;;31.55;23.38;;;21.90;99.90;;;;;;1873827;75;21182;-72
2021/06/12 06:23:38;;;;;;;31.35;22.93;;;21.90;99.90;;;;;;1877804;75;21243;-71
2021/06/12 06:26:06;;;;;;;33.85;23.45;;;21.90;99.90;;;;;;1885254;75;21156;-71
2021/06/12 06:28:34;;;;;;;31.15;22.62;;;22.00;99.90;;;;;;1878514;75;21051;-71
2021/06/12 06:31:01;;;;;;;32.67;23.40;;;22.00;99.90;;;;;;1877914;75;21587;-71
2021/06/12 06:33:29;;;;;;;33.60;23.25;;;22.00;99.90;;;;;;1876512;75;21138;-71
2021/06/12 06:35:56;;;;;;;31.48;23.22;;;21.90;99.90;;;;;;1878458;75;21114;-69
2021/06/12 06:38:24;;;;;;;29.12;22.13;;;22.00;99.90;;;;;;1875800;75;21125;-70
2021/06/12 06:40:52;;;;;;;29.45;21.20;;;22.00;99.90;;;;;;1881957;75;21259;-68
2021/06/12 06:43:19;;;;;;;30.35;21.93;;;22.10;99.90;;;;;;1877429;75;21123;-71
2021/06/12 06:45:47;;;;;;;29.05;20.85;;;22.10;99.90;;;;;;1878642;75;21222;-71
2021/06/12 06:48:20;;;;;;;29.00;19.92;;;22.10;99.90;;;;;;1878273;75;21133;-70
2021/06/12 06:50:46;;;;;;;29.42;20.43;;;22.00;99.90;;;;;;1878633;75;21611;-70
2021/06/12 06:53:14;;;;;;;25.70;19.60;;;22.00;99.90;;;;;;1882314;75;21106;-69
2021/06/12 06:55:41;;;;;;;26.33;19.27;;;22.00;99.90;;;;;;1878934;75;21633;-68
2021/06/12 06:58:09;;;;;;;28.38;20.00;;;22.10;99.90;;;;;;1878972;75;21117;-70
2021/06/12 07:00:36;;;;;;;32.93;20.40;;;22.10;99.90;;;;;;1877531;75;21062;-69
2021/06/12 07:03:04;;;;;;;27.17;21.35;;;22.20;99.90;;;;;;1877802;75;21102;-70
2021/06/12 07:05:32;;;;;;;26.20;20.10;;;22.20;99.90;;;;;;1876517;75;21190;-70
2021/06/12 07:08:00;;;;;;;26.50;20.30;;;22.20;99.90;;;;;;1862179;75;21098;-69
2021/06/12 07:10:27;;;;;;;30.35;20.23;;;22.20;99.90;;;;;;1877823;75;21208;-70
2021/06/12 07:13:02;;;;;;;26.55;19.73;;;22.30;99.90;;;;;;1880188;75;21071;-69
2021/06/12 07:15:29;;;;;;;31.82;19.57;;;22.30;99.90;;;;;;1892491;75;21247;-70
2021/06/12 07:17:57;;;;;;;26.30;19.27;;;22.30;99.90;;;;;;1876944;75;21109;-68
2021/06/12 07:20:25;;;;;;;23.25;18.15;;;22.40;99.90;;;;;;1881142;75;21189;-70
2021/06/12 07:22:52;;;;;;;22.70;17.17;;;22.40;99.90;;;;;;1879290;75;21113;-68
2021/06/12 07:25:20;;;;;;;26.60;18.85;;;22.40;99.90;;;;;;1879573;75;21164;-69
2021/06/12 07:27:48;;;;;;;24.77;17.77;;;22.30;99.90;;;;;;1882107;75;21074;-70
2021/06/12 07:30:15;;;;;;;23.30;17.10;;;22.20;99.90;;;;;;1868966;75;21121;-69
2021/06/12 07:32:43;;;;;;;21.02;16.62;;;22.30;99.90;;;;;;1892612;75;21091;-69
2021/06/12 07:35:11;;;;;;;24.18;17.75;;;22.30;99.90;;;;;;1880096;75;21101;-70
2021/06/12 07:37:39;;;;;;;24.07;15.68;;;22.20;99.90;;;;;;1868736;75;21094;-70
2021/06/12 07:40:07;;;;;;;21.77;15.75;;;22.20;99.90;;;;;;1889466;75;21094;-70
2021/06/12 07:42:34;;;;;;;22.93;16.97;;;22.20;99.90;;;;;;1885000;75;21068;-70
2021/06/12 07:45:02;;;;;;;19.62;15.72;;;22.20;99.90;;;;;;1886599;75;21089;-70
2021/06/12 07:47:30;;;;;;;25.92;17.25;;;22.20;99.90;;;;;;1889198;75;21168;-70
2021/06/12 07:49:58;;;;;;;22.95;16.15;;;22.20;99.90;;;;;;1882619;75;21153;-70
2021/06/12 07:52:25;;;;;;;24.35;16.90;;;22.30;99.90;;;;;;1880668;75;21043;-69
2021/06/12 07:54:53;;;;;;;22.32;16.00;;;22.30;99.90;;;;;;1894407;75;21608;-70
2021/06/12 07:57:20;;;;;;;25.17;16.25;;;22.30;99.90;;;;;;1897150;75;21096;-70
2021/06/12 07:59:48;;;;;;;21.93;15.15;;;22.30;99.90;;;;;;1885932;75;21563;-69
2021/06/12 08:02:15;;;;;;;20.32;14.25;;;22.30;99.90;;;;;;1889517;75;21101;-68
2021/06/12 08:04:43;;;;;;;22.27;14.87;;;22.50;99.90;;;;;;1887385;74;21047;-70
2021/06/12 08:07:10;;;;;;;21.10;15.08;;;22.50;99.90;;;;;;1858460;75;21629;-69
2021/06/12 08:09:38;;;;;;;22.98;14.68;;;22.60;99.90;;;;;;1876579;75;21177;-69
2021/06/12 08:12:07;;;;;;;19.27;14.13;;;22.60;99.90;;;;;;1894371;75;21108;-69
2021/06/12 08:14:34;;;;;;;16.37;11.85;;;22.60;99.90;;;;;;1895723;75;21094;-69
2021/06/12 08:17:02;;;;;;;15.13;9.73;;;22.70;99.90;;;;;;1883132;75;21043;-69
2021/06/12 08:19:29;;;;;;;16.20;10.43;;;22.60;99.90;;;;;;1903357;75;21063;-70
2021/06/12 08:21:57;;;;;;;13.48;10.80;;;22.60;99.90;;;;;;1892455;75;21133;-70
2021/06/12 08:24:24;;;;;;;15.20;11.18;;;22.70;99.90;;;;;;1882103;75;21098;-69
2021/06/12 08:26:52;;;;;;;21.07;11.57;;;22.70;99.90;;;;;;1904947;75;21132;-69
2021/06/12 08:29:19;;;;;;;21.33;14.90;;;22.80;99.90;;;;;;1896185;75;21158;-70
2021/06/12 08:31:47;;;;;;;13.62;10.32;;;22.80;99.90;;;;;;1899274;75;21121;-69
2021/06/12 08:34:14;;;;;;;14.45;11.40;;;22.80;99.90;;;;;;1890048;75;21145;-70
2021/06/12 08:36:42;;;;;;;21.40;14.18;;;22.80;99.90;;;;;;1875036;75;21065;-70
2021/06/12 08:39:09;;;;;;;20.10;10.38;;;22.90;99.90;;;;;;1882709;75;21179;-69
2021/06/12 08:41:37;;;;;;;15.70;8.85;;;22.90;99.90;;;;;;1878037;75;21274;-69
2021/06/12 08:44:04;;;;;;;10.70;7.33;;;22.90;99.90;;;;;;1882213;75;21107;-70
2021/06/12 08:46:32;;;;;;;8.98;6.05;;;22.90;99.90;;;;;;1882230;75;21105;-70
2021/06/12 08:48:59;;;;;;;13.72;6.05;;;22.90;99.90;;;;;;1881513;75;21058;-70
2021/06/12 08:51:27;;;;;;;11.80;6.25;;;22.70;99.90;;;;;;1882609;75;21104;-69
2021/06/12 08:53:54;;;;;;;12.25;6.10;;;22.70;99.90;;;;;;1886857;75;21157;-69
2021/06/12 08:56:22;;;;;;;15.10;6.12;;;22.70;99.90;;;;;;1885914;75;21520;-69
2021/06/12 08:58:50;;;;;;;11.70;5.40;;;22.70;99.90;;;;;;1893873;75;21015;-67
2021/06/12 09:01:17;;;;;;;9.13;5.00;;;22.70;99.90;;;;;;1898338;75;21086;-70
2021/06/12 09:03:46;;;;;;;10.55;5.62;;;22.60;99.90;;;;;;1893811;75;21156;-68
2021/06/12 09:06:19;;;;;;;15.08;7.80;;;22.60;99.90;;;;;;1872304;74;21081;-68
2021/06/12 09:08:47;;;;;;;10.20;5.65;;;22.60;99.90;;;;;;1873763;75;21167;-69
2021/06/12 09:11:17;;;;;;;9.33;4.90;;;22.70;99.90;;;;;;1883561;75;21125;-69
2021/06/12 09:13:58;;;;;;;9.95;3.70;;;22.70;99.90;;;;;;1875706;75;21668;-70
2021/06/12 09:16:34;;;;;;;7.53;3.67;;;22.80;99.90;;;;;;1881859;75;21048;-68
2021/06/12 09:19:10;;;;;;;9.05;4.20;;;22.80;99.90;;;;;;1901650;75;21591;-71
2021/06/12 09:21:40;;;;;;;10.58;3.37;;;22.80;99.90;;;;;;1882892;75;21109;-71
2021/06/12 09:24:23;;;;;;;10.32;3.55;;;22.80;99.90;;;;;;1884182;75;21054;-71
2021/06/12 09:26:59;;;;;;;11.03;3.70;;;22.80;99.90;;;;;;1892577;75;21648;-70
2021/06/12 09:29:44;;;;;;;7.70;3.75;;;22.80;99.90;;;;;;1884492;75;21118;-70
2021/06/12 09:32:23;;;;;;;8.48;3.90;;;22.80;99.90;;;;;;1975695;71;21113;-70
2021/06/12 09:34:54;;;;;;;12.28;4.22;;;22.70;99.90;;;;;;1962158;72;21132;-70
2021/06/12 09:37:24;;;;;;;10.85;3.92;;;22.70;99.90;;;;;;1942823;73;21082;-71
2021/06/12 09:40:03;;;;;;;8.03;3.90;;;22.80;99.90;;;;;;1930160;73;21540;-72
2021/06/12 09:42:51;;;;;;;8.13;3.77;;;22.80;99.90;;;;;;1932721;73;21097;-71
2021/06/12 09:45:24;;;;;;;9.25;3.40;;;22.80;99.90;;;;;;1913499;73;21476;-77
2021/06/12 09:47:52;;;;;;;12.03;3.47;;;22.70;99.90;;;;;;1971202;73;21080;-72
2021/06/12 09:50:22;;;;;;;8.23;3.33;;;22.70;99.90;;;;;;1980632;71;21546;-73
2021/06/12 09:52:52;;;;;;;12.10;3.60;;;22.70;99.90;;;;;;1984017;71;21156;-73
2021/06/12 09:55:27;;;;;;;7.50;3.05;;;22.60;99.90;;;;;;1935272;73;21433;-72
2021/06/12 09:57:57;;;;;;;13.03;3.37;;;22.60;99.90;;;;;;1970986;73;21087;-72
2021/06/12 10:00:42;;;;;;;9.75;3.30;;;22.60;99.90;;;;;;1899333;74;21102;-73
2021/06/12 10:03:32;;;;;;;10.98;3.52;;;22.50;99.90;;;;;;1985605;71;21501;-73
2021/06/12 10:06:27;;;;;;;7.95;3.27;;;22.40;99.90;;;;;;1977282;71;21156;-73
2021/06/12 10:08:54;;;;;;;8.03;3.15;;;22.40;99.90;;;;;;1973995;71;21147;-73
2021/06/12 10:11:30;;;;;;;8.28;2.80;;;22.40;99.90;;;;;;1978399;72;21146;-73
2021/06/12 10:13:58;;;;;;;11.30;3.85;;;22.40;99.90;;;;;;1979340;72;21287;-73
2021/06/12 10:16:27;;;;;;;9.75;2.85;;;22.50;99.90;;;;;;1976207;72;21057;-73
2021/06/12 10:18:56;;;;;;;7.42;2.67;;;22.60;99.90;;;;;;1927926;74;21042;-72
2021/06/12 10:21:24;;;;;;;10.32;2.75;;;22.60;99.90;;;;;;1973114;71;21499;-72
2021/06/12 10:23:52;;;;;;;7.97;2.33;;;22.70;99.90;;;;;;1903974;75;21497;-72
2021/06/12 10:26:22;;;;;;;11.12;2.85;;;22.70;99.90;;;;;;1927892;73;21108;-73
2021/06/12 10:28:49;;;;;;;9.38;2.67;;;22.80;99.90;;;;;;1930500;73;21575;-72
2021/06/12 10:31:23;;;;;;;6.58;2.87;;;22.90;99.90;;;;;;1936757;73;21122;-72
2021/06/12 10:33:53;;;;;;;12.78;2.47;;;23.00;99.90;;;;;;1927377;73;21055;-73
2021/06/12 10:36:23;;;;;;;8.83;2.62;;;23.10;99.90;;;;;;1935751;73;21030;-73
2021/06/12 10:38:51;;;;;;;10.50;2.30;;;23.10;99.90;;;;;;1968797;72;21025;-72
2021/06/12 10:41:21;;;;;;;8.53;2.12;;;23.10;99.90;;;;;;1935529;73;21649;-73
2021/06/12 10:43:51;;;;;;;8.55;2.33;;;23.10;99.90;;;;;;1928826;73;21179;-72
2021/06/12 10:46:21;;;;;;;7.10;2.62;;;23.20;99.90;;;;;;1927138;74;21547;-72
2021/06/12 10:48:54;;;;;;;10.23;2.15;;;23.20;99.90;;;;;;1932843;73;21075;-72
2021/06/12 10:51:48;;;;;;;6.37;2.37;;;23.20;99.10;;;;;;1927552;73;21219;-72
2021/06/12 10:54:23;;;;;;;4.08;1.72;;;23.10;99.20;;;;;;1909157;74;21566;-72
2021/06/12 10:56:54;;;;;;;10.72;2.00;;;23.20;99.90;;;;;;1911503;73;21516;-72
2021/06/12 10:59:36;;;;;;;6.85;2.10;;;23.30;99.80;;;;;;1920616;75;21555;-73
2021/06/12 11:02:09;;;;;;;7.03;2.52;;;23.40;99.70;;;;;;1891062;75;21109;-73
2021/06/12 11:05:04;;;;;;;6.90;1.95;;;23.50;99.40;;;;;;1907344;75;21112;-73
2021/06/12 11:07:36;;;;;;;12.95;2.20;;;23.40;97.90;;;;;;1888219;74;21559;-73
2021/06/12 11:10:18;;;;;;;7.60;2.00;;;23.30;98.10;;;;;;1918195;75;21077;-73
2021/06/12 11:12:48;;;;;;;7.45;1.87;;;23.30;99.00;;;;;;1911217;74;21569;-73
2021/06/12 11:15:18;;;;;;;6.55;1.85;;;23.30;99.20;;;;;;1907187;74;21015;-71
2021/06/12 11:17:48;;;;;;;6.45;1.98;;;23.20;98.30;;;;;;1917748;75;21592;-73
2021/06/12 11:20:18;;;;;;;5.37;1.80;;;23.10;97.90;;;;;;1913711;75;21081;-73
2021/06/12 11:22:53;;;;;;;6.20;1.67;;;23.00;97.70;;;;;;1895081;74;21013;-73
2021/06/12 11:25:24;;;;;;;3.98;1.30;;;23.00;97.60;;;;;;1900519;75;21486;-73
2021/06/12 11:27:54;;;;;;;8.38;2.02;;;23.00;97.40;;;;;;1909437;74;21039;-73
2021/06/12 11:30:24;;;;;;;9.95;1.62;;;23.00;98.40;;;;;;1903970;75;21090;-73
2021/06/12 11:32:58;;;;;;;5.25;1.57;;;23.00;97.80;;;;;;1910623;75;21591;-73
2021/06/12 11:35:51;;;;;;;7.92;2.08;;;23.00;97.50;;;;;;1904930;75;21178;-74
2021/06/12 11:38:39;;;;;;;4.67;1.90;;;23.00;97.50;;;;;;1905113;75;21203;-74
2021/06/12 11:41:27;;;;;;;5.67;1.60;;;23.10;98.80;;;;;;1896626;75;21129;-73
2021/06/12 11:43:56;;;;;;;4.72;1.30;;;23.00;97.40;;;;;;1912003;74;21176;-73
2021/06/12 11:46:40;;;;;;;5.35;1.30;;;23.00;96.90;;;;;;1911597;74;21544;-72
2021/06/12 11:49:09;;;;;;;3.45;1.42;;;23.10;97.40;;;;;;1914108;73;20995;-72
2021/06/12 11:51:46;;;;;;;3.02;1.27;;;23.20;96.60;;;;;;1900311;74;21529;-72
2021/06/12 11:54:18;;;;;;;5.65;1.60;;;23.20;96.00;;;;;;1900360;75;21042;-72
2021/06/12 11:56:50;;;;;;;5.10;1.40;;;23.30;96.60;;;;;;1900479;75;21514;-72
2021/06/12 11:59:23;;;;;;;9.00;1.45;;;23.30;96.20;;;;;;1907889;75;21077;-74
2021/06/12 12:02:00;;;;;;;4.37;1.15;;;23.10;95.20;;;;;;1888243;75;22211;-71
2021/06/12 12:04:42;;;;;;;5.12;1.62;;;23.10;95.30;;;;;;1908082;75;21094;-72
2021/06/12 12:07:11;;;;;;;3.55;1.15;;;23.00;94.80;;;;;;1909407;75;21130;-72
2021/06/12 12:09:47;;;;;;;6.15;1.70;;;22.90;95.50;;;;;;1912749;73;21457;-71
2021/06/12 12:12:23;;;;;;;5.17;1.52;;;23.00;96.00;;;;;;1906182;75;21110;-71
2021/06/12 12:14:55;;;;;;;6.80;1.42;;;22.90;96.00;;;;;;1894808;75;21372;-71
2021/06/12 12:17:24;;;;;;;4.85;1.50;;;23.00;96.30;;;;;;1899799;74;21228;-72
2021/06/12 12:20:08;;;;;;;3.42;1.30;;;23.00;96.20;;;;;;1900216;74;21108;-71
2021/06/12 12:22:41;;;;;;;5.20;1.42;;;23.10;96.70;;;;;;1904553;74;21073;-73
2021/06/12 12:25:11;;;;;;;5.62;1.50;;;23.10;96.70;;;;;;1904905;73;21092;-72
2021/06/12 12:27:40;;;;;;;5.85;1.55;;;23.10;97.30;;;;;;1910094;74;21355;-73
2021/06/12 12:30:10;;;;;;;6.30;1.50;;;23.10;97.00;;;;;;1905930;74;21250;-72
2021/06/12 12:32:37;;;;;;;7.28;1.37;;;22.90;96.20;;;;;;1902038;74;21086;-72
2021/06/12 12:35:13;;;;;;;6.22;1.20;;;22.90;95.80;;;;;;1906685;75;21077;-73
2021/06/12 12:37:41;;;;;;;9.30;1.52;;;22.90;95.90;;;;;;1904264;73;21601;-75
2021/06/12 12:40:22;;;;;;;5.67;1.70;;;23.10;96.60;;;;;;1902093;73;21011;-73
2021/06/12 12:43:03;;;;;;;6.05;1.70;;;23.20;96.20;;;;;;1902555;74;21172;-69
2021/06/12 12:45:31;;;;;;;6.05;1.87;;;23.30;95.80;;;;;;1916705;74;21098;-69
2021/06/12 12:47:59;;;;;;;7.60;1.47;;;23.30;95.50;;;;;;1901308;75;21144;-72